Terminal Aerodrome Forecast
Issued by NWS Pocatello, ID

Home | Current Version | Previous Version | Text Only | Print | Product List | Glossary On
Versions: 1 2 3 4 5 6 7 8 9 10 11 12 13 14 15 16 17 18 19 20 21 22 23 24 25 26
000
FTUS45 KPIH 210554 AAA
TAFIDA
TAF AMD
KIDA 210554Z 2106/2206 19019G29KT P6SM -RA SCT025 OVC035
      TEMPO 2106/2109 P6SM -RA BKN025
     FM211000 20023G33KT P6SM VCSH SCT025 BKN040
     FM212000 22028G38KT P6SM -SHRA VCTS SCT020 BKN040CB
     FM220200 23019G29KT P6SM VCSH SCT025 BKN100=

USA.gov is the U.S. government's official web portal to all federal, state and local government web resources and services.